sensor_id;sensor_type;location;lat;lon;timestamp;temperature;humidity
3208;DHT22;1616;52.394;9.756;2024-02-28T00:00:34;5.70;99.90
3208;DHT22;1616;52.394;9.756;2024-02-28T00:02:59;5.60;99.90
3208;DHT22;1616;52.394;9.756;2024-02-28T00:05:25;5.60;99.90
3208;DHT22;1616;52.394;9.756;2024-02-28T00:07:50;5.50;99.90
3208;DHT22;1616;52.394;9.756;2024-02-28T00:10:18;5.50;99.90
3208;DHT22;1616;52.394;9.756;2024-02-28T00:12:43;5.40;99.90
3208;DHT22;1616;52.394;9.756;2024-02-28T00:15:09;5.30;99.90
3208;DHT22;1616;52.394;9.756;2024-02-28T00:17:39;5.30;99.90
3208;DHT22;1616;52.394;9.756;2024-02-28T00:20:08;5.20;99.90
3208;DHT22;1616;52.394;9.756;2024-02-28T00:22:38;5.20;99.90
3208;DHT22;1616;52.394;9.756;2024-02-28T00:25:04;5.10;99.90
3208;DHT22;1616;52.394;9.756;2024-02-28T00:27:32;5.10;99.90
3208;DHT22;1616;52.394;9.756;2024-02-28T00:29:59;5.10;99.90
3208;DHT22;1616;52.394;9.756;2024-02-28T00:32:24;5.00;99.90
3208;DHT22;1616;52.394;9.756;2024-02-28T00:34:50;5.00;99.90
3208;DHT22;1616;52.394;9.756;2024-02-28T00:37:15;5.00;99.90
3208;DHT22;1616;52.394;9.756;2024-02-28T00:39:44;4.90;99.90
3208;DHT22;1616;52.394;9.756;2024-02-28T00:42:10;4.90;99.90
3208;DHT22;1616;52.394;9.756;2024-02-28T00:44:35;4.90;99.90
3208;DHT22;1616;52.394;9.756;2024-02-28T00:47:01;4.80;99.90
3208;DHT22;1616;52.394;9.756;2024-02-28T00:49:26;4.70;99.90
3208;DHT22;1616;52.394;9.756;2024-02-28T00:51:52;4.60;99.90
3208;DHT22;1616;52.394;9.756;2024-02-28T00:54:18;4.60;99.90
3208;DHT22;1616;52.394;9.756;2024-02-28T00:56:44;4.50;99.90
3208;DHT22;1616;52.394;9.756;2024-02-28T00:59:10;4.50;99.90
3208;DHT22;1616;52.394;9.756;2024-02-28T01:01:38;4.40;99.90
3208;DHT22;1616;52.394;9.756;2024-02-28T01:04:04;4.40;99.90
3208;DHT22;1616;52.394;9.756;2024-02-28T01:06:29;4.40;99.90
3208;DHT22;1616;52.394;9.756;2024-02-28T01:08:55;4.40;99.90
3208;DHT22;1616;52.394;9.756;2024-02-28T01:11:20;4.50;99.90
3208;DHT22;1616;52.394;9.756;2024-02-28T01:13:46;4.50;99.90
3208;DHT22;1616;52.394;9.756;2024-02-28T01:16:13;4.50;99.90
3208;DHT22;1616;52.394;9.756;2024-02-28T01:18:38;4.50;99.90
3208;DHT22;1616;52.394;9.756;2024-02-28T01:21:04;4.50;99.90
3208;DHT22;1616;52.394;9.756;2024-02-28T01:23:30;4.50;99.90
3208;DHT22;1616;52.394;9.756;2024-02-28T01:25:56;4.50;99.90
3208;DHT22;1616;52.394;9.756;2024-02-28T01:28:21;4.50;99.90
3208;DHT22;1616;52.394;9.756;2024-02-28T01:30:47;4.60;99.90
3208;DHT22;1616;52.394;9.756;2024-02-28T01:33:13;4.60;99.90
3208;DHT22;1616;52.394;9.756;2024-02-28T01:35:39;4.60;99.90
3208;DHT22;1616;52.394;9.756;2024-02-28T01:38:05;4.60;99.90
3208;DHT22;1616;52.394;9.756;2024-02-28T01:40:31;4.50;99.90
3208;DHT22;1616;52.394;9.756;2024-02-28T01:43:11;4.50;99.90
3208;DHT22;1616;52.394;9.756;2024-02-28T01:45:37;4.40;99.90
3208;DHT22;1616;52.394;9.756;2024-02-28T01:48:03;4.40;99.90
3208;DHT22;1616;52.394;9.756;2024-02-28T01:50:32;4.30;99.90
3208;DHT22;1616;52.394;9.756;2024-02-28T01:52:59;4.20;99.90
3208;DHT22;1616;52.394;9.756;2024-02-28T01:55:25;4.20;99.90
3208;DHT22;1616;52.394;9.756;2024-02-28T01:57:52;4.10;99.90
3208;DHT22;1616;52.394;9.756;2024-02-28T02:00:18;4.00;99.90
3208;DHT22;1616;52.394;9.756;2024-02-28T02:02:44;4.00;99.90
3208;DHT22;1616;52.394;9.756;2024-02-28T02:05:10;3.90;99.90
3208;DHT22;1616;52.394;9.756;2024-02-28T02:07:36;3.80;99.90
3208;DHT22;1616;52.394;9.756;2024-02-28T02:10:02;3.70;99.90
3208;DHT22;1616;52.394;9.756;2024-02-28T02:12:28;3.60;99.90
3208;DHT22;1616;52.394;9.756;2024-02-28T02:14:53;3.60;99.90
3208;DHT22;1616;52.394;9.756;2024-02-28T02:17:19;3.50;99.90
3208;DHT22;1616;52.394;9.756;2024-02-28T02:19:45;3.40;99.90
3208;DHT22;1616;52.394;9.756;2024-02-28T02:22:13;3.30;99.90
3208;DHT22;1616;52.394;9.756;2024-02-28T02:24:38;3.30;99.90
3208;DHT22;1616;52.394;9.756;2024-02-28T02:27:04;3.20;99.90
3208;DHT22;1616;52.394;9.756;2024-02-28T02:29:30;3.20;99.90
3208;DHT22;1616;52.394;9.756;2024-02-28T02:31:56;3.00;99.90
3208;DHT22;1616;52.394;9.756;2024-02-28T02:34:22;3.00;99.90
3208;DHT22;1616;52.394;9.756;2024-02-28T02:36:48;2.90;99.90
3208;DHT22;1616;52.394;9.756;2024-02-28T02:39:13;2.80;99.90
3208;DHT22;1616;52.394;9.756;2024-02-28T02:41:39;2.80;99.90
3208;DHT22;1616;52.394;9.756;2024-02-28T02:44:07;2.70;99.90
3208;DHT22;1616;52.394;9.756;2024-02-28T02:46:33;2.70;99.90
3208;DHT22;1616;52.394;9.756;2024-02-28T02:48:59;2.70;99.90
3208;DHT22;1616;52.394;9.756;2024-02-28T02:51:24;2.60;99.90
3208;DHT22;1616;52.394;9.756;2024-02-28T02:53:51;2.50;99.90
3208;DHT22;1616;52.394;9.756;2024-02-28T02:56:16;2.50;99.90
3208;DHT22;1616;52.394;9.756;2024-02-28T02:58:42;2.40;99.90
3208;DHT22;1616;52.394;9.756;2024-02-28T03:01:08;2.40;99.90
3208;DHT22;1616;52.394;9.756;2024-02-28T03:03:36;2.40;99.90
3208;DHT22;1616;52.394;9.756;2024-02-28T03:06:04;2.30;99.90
3208;DHT22;1616;52.394;9.756;2024-02-28T03:08:30;2.30;99.90
3208;DHT22;1616;52.394;9.756;2024-02-28T03:10:56;2.30;99.90
3208;DHT22;1616;52.394;9.756;2024-02-28T03:13:22;2.30;99.90
3208;DHT22;1616;52.394;9.756;2024-02-28T03:15:48;2.20;99.90
3208;DHT22;1616;52.394;9.756;2024-02-28T03:18:14;2.20;99.90
3208;DHT22;1616;52.394;9.756;2024-02-28T03:20:39;2.10;99.90
3208;DHT22;1616;52.394;9.756;2024-02-28T03:23:06;2.10;99.90
3208;DHT22;1616;52.394;9.756;2024-02-28T03:25:34;2.10;99.90
3208;DHT22;1616;52.394;9.756;2024-02-28T03:28:00;2.00;99.90
3208;DHT22;1616;52.394;9.756;2024-02-28T03:30:27;2.00;99.90
3208;DHT22;1616;52.394;9.756;2024-02-28T03:32:53;1.90;99.90
3208;DHT22;1616;52.394;9.756;2024-02-28T03:35:19;1.90;99.90
3208;DHT22;1616;52.394;9.756;2024-02-28T03:37:44;1.90;99.90
3208;DHT22;1616;52.394;9.756;2024-02-28T03:40:10;1.90;99.90
3208;DHT22;1616;52.394;9.756;2024-02-28T03:42:36;1.90;99.90
3208;DHT22;1616;52.394;9.756;2024-02-28T03:45:02;1.90;99.90
3208;DHT22;1616;52.394;9.756;2024-02-28T03:47:28;1.90;99.90
3208;DHT22;1616;52.394;9.756;2024-02-28T03:49:54;1.90;99.90
3208;DHT22;1616;52.394;9.756;2024-02-28T03:52:23;1.80;99.90
3208;DHT22;1616;52.394;9.756;2024-02-28T03:54:48;1.80;99.90
3208;DHT22;1616;52.394;9.756;2024-02-28T03:57:14;1.80;99.90
3208;DHT22;1616;52.394;9.756;2024-02-28T03:59:41;1.70;99.90
3208;DHT22;1616;52.394;9.756;2024-02-28T04:02:06;1.70;99.90
3208;DHT22;1616;52.394;9.756;2024-02-28T04:04:32;1.60;99.90
3208;DHT22;1616;52.394;9.756;2024-02-28T04:06:57;1.60;99.90
3208;DHT22;1616;52.394;9.756;2024-02-28T04:09:23;1.60;99.90
3208;DHT22;1616;52.394;9.756;2024-02-28T04:11:48;1.60;99.90
3208;DHT22;1616;52.394;9.756;2024-02-28T04:14:14;1.50;99.90
3208;DHT22;1616;52.394;9.756;2024-02-28T04:16:46;1.60;99.90
3208;DHT22;1616;52.394;9.756;2024-02-28T04:19:13;1.60;99.90
3208;DHT22;1616;52.394;9.756;2024-02-28T04:21:38;1.50;99.90
3208;DHT22;1616;52.394;9.756;2024-02-28T04:24:08;1.50;99.90
3208;DHT22;1616;52.394;9.756;2024-02-28T04:26:35;1.60;99.90
3208;DHT22;1616;52.394;9.756;2024-02-28T04:29:01;1.50;99.90
3208;DHT22;1616;52.394;9.756;2024-02-28T04:31:30;1.40;99.90
3208;DHT22;1616;52.394;9.756;2024-02-28T04:33:56;1.40;99.90
3208;DHT22;1616;52.394;9.756;2024-02-28T04:36:22;1.10;99.90
3208;DHT22;1616;52.394;9.756;2024-02-28T04:38:47;1.30;99.90
3208;DHT22;1616;52.394;9.756;2024-02-28T04:41:13;1.20;99.90
3208;DHT22;1616;52.394;9.756;2024-02-28T04:43:40;1.20;99.90
3208;DHT22;1616;52.394;9.756;2024-02-28T04:46:05;1.10;99.90
3208;DHT22;1616;52.394;9.756;2024-02-28T04:48:31;1.10;99.90
3208;DHT22;1616;52.394;9.756;2024-02-28T04:50:57;1.10;99.90
3208;DHT22;1616;52.394;9.756;2024-02-28T04:53:22;1.10;99.90
3208;DHT22;1616;52.394;9.756;2024-02-28T04:55:48;1.10;99.90
3208;DHT22;1616;52.394;9.756;2024-02-28T04:58:13;1.10;99.90
3208;DHT22;1616;52.394;9.756;2024-02-28T05:00:39;1.10;99.90
3208;DHT22;1616;52.394;9.756;2024-02-28T05:03:04;1.10;99.90
3208;DHT22;1616;52.394;9.756;2024-02-28T05:05:30;1.10;99.90
3208;DHT22;1616;52.394;9.756;2024-02-28T05:07:55;1.10;99.90
3208;DHT22;1616;52.394;9.756;2024-02-28T05:10:21;1.10;99.90
3208;DHT22;1616;52.394;9.756;2024-02-28T05:12:46;1.10;99.90
3208;DHT22;1616;52.394;9.756;2024-02-28T05:15:12;1.20;99.90
3208;DHT22;1616;52.394;9.756;2024-02-28T05:17:39;1.20;99.90
3208;DHT22;1616;52.394;9.756;2024-02-28T05:20:05;1.10;99.90
3208;DHT22;1616;52.394;9.756;2024-02-28T05:22:31;1.10;99.90
3208;DHT22;1616;52.394;9.756;2024-02-28T05:24:56;1.20;99.90
3208;DHT22;1616;52.394;9.756;2024-02-28T05:27:22;1.20;99.90
3208;DHT22;1616;52.394;9.756;2024-02-28T05:29:47;1.20;99.90
3208;DHT22;1616;52.394;9.756;2024-02-28T05:32:13;1.30;99.90
3208;DHT22;1616;52.394;9.756;2024-02-28T05:34:39;1.30;99.90
3208;DHT22;1616;52.394;9.756;2024-02-28T05:37:04;1.40;99.90
3208;DHT22;1616;52.394;9.756;2024-02-28T05:39:31;1.40;99.90
3208;DHT22;1616;52.394;9.756;2024-02-28T05:41:57;1.50;99.90
3208;DHT22;1616;52.394;9.756;2024-02-28T05:44:23;1.60;99.90
3208;DHT22;1616;52.394;9.756;2024-02-28T05:46:50;1.70;99.90
3208;DHT22;1616;52.394;9.756;2024-02-28T05:49:15;1.80;99.90
3208;DHT22;1616;52.394;9.756;2024-02-28T05:51:41;1.80;99.90
3208;DHT22;1616;52.394;9.756;2024-02-28T05:54:07;1.90;99.90
3208;DHT22;1616;52.394;9.756;2024-02-28T05:56:32;2.00;99.90
3208;DHT22;1616;52.394;9.756;2024-02-28T05:58:59;2.10;99.90
3208;DHT22;1616;52.394;9.756;2024-02-28T06:01:25;2.10;99.90
3208;DHT22;1616;52.394;9.756;2024-02-28T06:03:50;2.10;99.90
3208;DHT22;1616;52.394;9.756;2024-02-28T06:06:17;2.20;99.90
3208;DHT22;1616;52.394;9.756;2024-02-28T06:08:43;2.20;99.90
3208;DHT22;1616;52.394;9.756;2024-02-28T06:11:09;2.20;99.90
3208;DHT22;1616;52.394;9.756;2024-02-28T06:13:36;2.20;99.90
3208;DHT22;1616;52.394;9.756;2024-02-28T06:16:02;2.20;99.90
3208;DHT22;1616;52.394;9.756;2024-02-28T06:18:28;2.20;99.90
3208;DHT22;1616;52.394;9.756;2024-02-28T06:20:55;2.20;99.90
3208;DHT22;1616;52.394;9.756;2024-02-28T06:23:24;2.10;99.90
3208;DHT22;1616;52.394;9.756;2024-02-28T06:25:51;2.10;99.90
3208;DHT22;1616;52.394;9.756;2024-02-28T06:28:17;2.10;99.90
3208;DHT22;1616;52.394;9.756;2024-02-28T06:30:43;2.20;99.90
3208;DHT22;1616;52.394;9.756;2024-02-28T06:33:14;2.10;99.90
3208;DHT22;1616;52.394;9.756;2024-02-28T06:35:41;2.10;99.90
3208;DHT22;1616;52.394;9.756;2024-02-28T06:38:07;2.20;99.90
3208;DHT22;1616;52.394;9.756;2024-02-28T06:40:33;2.10;99.90
3208;DHT22;1616;52.394;9.756;2024-02-28T06:42:59;2.20;99.90
3208;DHT22;1616;52.394;9.756;2024-02-28T06:45:25;2.20;99.90
3208;DHT22;1616;52.394;9.756;2024-02-28T06:47:52;2.20;99.90
3208;DHT22;1616;52.394;9.756;2024-02-28T06:50:18;2.30;99.90
3208;DHT22;1616;52.394;9.756;2024-02-28T06:52:43;2.30;99.90
3208;DHT22;1616;52.394;9.756;2024-02-28T06:55:09;2.50;99.90
3208;DHT22;1616;52.394;9.756;2024-02-28T06:57:40;2.50;99.90
3208;DHT22;1616;52.394;9.756;2024-02-28T07:00:07;2.70;99.90
3208;DHT22;1616;52.394;9.756;2024-02-28T07:02:44;2.90;99.90
3208;DHT22;1616;52.394;9.756;2024-02-28T07:05:10;3.10;99.90
3208;DHT22;1616;52.394;9.756;2024-02-28T07:07:36;3.20;99.90
3208;DHT22;1616;52.394;9.756;2024-02-28T07:10:05;3.30;99.90
3208;DHT22;1616;52.394;9.756;2024-02-28T07:12:31;3.30;99.90
3208;DHT22;1616;52.394;9.756;2024-02-28T07:14:57;3.40;99.90
3208;DHT22;1616;52.394;9.756;2024-02-28T07:17:22;3.40;99.90
3208;DHT22;1616;52.394;9.756;2024-02-28T07:19:48;3.40;99.90
3208;DHT22;1616;52.394;9.756;2024-02-28T07:22:14;3.40;99.90
3208;DHT22;1616;52.394;9.756;2024-02-28T07:24:39;3.40;99.90
3208;DHT22;1616;52.394;9.756;2024-02-28T07:27:08;3.50;99.90
3208;DHT22;1616;52.394;9.756;2024-02-28T07:29:33;3.60;99.90
3208;DHT22;1616;52.394;9.756;2024-02-28T07:32:00;3.60;99.90
3208;DHT22;1616;52.394;9.756;2024-02-28T07:34:27;3.70;99.90
3208;DHT22;1616;52.394;9.756;2024-02-28T07:36:53;3.70;99.90
3208;DHT22;1616;52.394;9.756;2024-02-28T07:39:18;3.80;99.90
3208;DHT22;1616;52.394;9.756;2024-02-28T07:41:46;3.80;99.90
3208;DHT22;1616;52.394;9.756;2024-02-28T07:44:12;3.80;99.90
3208;DHT22;1616;52.394;9.756;2024-02-28T07:46:41;3.90;99.90
3208;DHT22;1616;52.394;9.756;2024-02-28T07:49:06;3.90;99.90
3208;DHT22;1616;52.394;9.756;2024-02-28T07:51:32;4.00;99.90
3208;DHT22;1616;52.394;9.756;2024-02-28T07:53:57;4.00;99.90
3208;DHT22;1616;52.394;9.756;2024-02-28T07:56:23;4.10;99.90
3208;DHT22;1616;52.394;9.756;2024-02-28T07:58:48;4.10;99.90
3208;DHT22;1616;52.394;9.756;2024-02-28T08:01:14;4.20;99.90
3208;DHT22;1616;52.394;9.756;2024-02-28T08:03:41;4.20;99.90
3208;DHT22;1616;52.394;9.756;2024-02-28T08:06:07;4.40;99.90
3208;DHT22;1616;52.394;9.756;2024-02-28T08:08:35;4.40;99.90
3208;DHT22;1616;52.394;9.756;2024-02-28T08:11:02;4.50;99.90
3208;DHT22;1616;52.394;9.756;2024-02-28T08:13:28;4.60;99.90
3208;DHT22;1616;52.394;9.756;2024-02-28T08:15:55;4.60;99.90
3208;DHT22;1616;52.394;9.756;2024-02-28T08:18:20;4.70;99.90
3208;DHT22;1616;52.394;9.756;2024-02-28T08:20:46;4.70;99.90
3208;DHT22;1616;52.394;9.756;2024-02-28T08:23:11;4.70;99.90
3208;DHT22;1616;52.394;9.756;2024-02-28T08:25:37;4.70;99.90
3208;DHT22;1616;52.394;9.756;2024-02-28T08:28:03;4.80;99.90
3208;DHT22;1616;52.394;9.756;2024-02-28T08:30:29;4.90;99.90
3208;DHT22;1616;52.394;9.756;2024-02-28T08:32:55;5.00;99.90
3208;DHT22;1616;52.394;9.756;2024-02-28T08:35:20;5.10;99.90
3208;DHT22;1616;52.394;9.756;2024-02-28T08:37:46;5.20;99.90
3208;DHT22;1616;52.394;9.756;2024-02-28T08:40:12;5.40;99.90
3208;DHT22;1616;52.394;9.756;2024-02-28T08:42:38;5.50;99.90
3208;DHT22;1616;52.394;9.756;2024-02-28T08:45:04;5.70;99.90
3208;DHT22;1616;52.394;9.756;2024-02-28T08:47:31;5.90;99.90
3208;DHT22;1616;52.394;9.756;2024-02-28T08:49:57;6.10;99.90
3208;DHT22;1616;52.394;9.756;2024-02-28T08:52:23;6.30;99.90
3208;DHT22;1616;52.394;9.756;2024-02-28T08:54:49;6.70;99.90
3208;DHT22;1616;52.394;9.756;2024-02-28T08:57:17;7.20;99.90
3208;DHT22;1616;52.394;9.756;2024-02-28T08:59:45;7.70;99.90
3208;DHT22;1616;52.394;9.756;2024-02-28T09:02:11;8.20;99.90
3208;DHT22;1616;52.394;9.756;2024-02-28T09:04:37;8.80;99.90
3208;DHT22;1616;52.394;9.756;2024-02-28T09:07:02;9.40;99.90
3208;DHT22;1616;52.394;9.756;2024-02-28T09:09:28;10.10;99.90
3208;DHT22;1616;52.394;9.756;2024-02-28T09:11:56;10.80;99.90
3208;DHT22;1616;52.394;9.756;2024-02-28T09:14:22;11.40;99.90
3208;DHT22;1616;52.394;9.756;2024-02-28T09:16:47;11.80;99.90
3208;DHT22;1616;52.394;9.756;2024-02-28T09:19:13;12.30;99.90
3208;DHT22;1616;52.394;9.756;2024-02-28T09:21:39;12.90;99.90
3208;DHT22;1616;52.394;9.756;2024-02-28T09:24:05;13.40;99.90
3208;DHT22;1616;52.394;9.756;2024-02-28T09:26:31;14.00;98.90
3208;DHT22;1616;52.394;9.756;2024-02-28T09:28:56;14.60;96.80
3208;DHT22;1616;52.394;9.756;2024-02-28T09:31:22;15.10;94.10
3208;DHT22;1616;52.394;9.756;2024-02-28T09:33:47;15.50;91.20
3208;DHT22;1616;52.394;9.756;2024-02-28T09:36:14;15.70;87.40
3208;DHT22;1616;52.394;9.756;2024-02-28T09:38:41;15.90;86.00
3208;DHT22;1616;52.394;9.756;2024-02-28T09:41:07;16.00;83.70
3208;DHT22;1616;52.394;9.756;2024-02-28T09:43:40;16.20;84.40
3208;DHT22;1616;52.394;9.756;2024-02-28T09:46:07;16.50;77.90
3208;DHT22;1616;52.394;9.756;2024-02-28T09:48:38;16.50;75.40
3208;DHT22;1616;52.394;9.756;2024-02-28T09:51:05;16.60;73.80
3208;DHT22;1616;52.394;9.756;2024-02-28T09:53:31;16.80;73.50
3208;DHT22;1616;52.394;9.756;2024-02-28T09:55:57;16.80;70.90
3208;DHT22;1616;52.394;9.756;2024-02-28T09:58:23;17.00;71.20
3208;DHT22;1616;52.394;9.756;2024-02-28T10:00:49;17.30;69.40
3208;DHT22;1616;52.394;9.756;2024-02-28T10:03:19;17.30;67.20
3208;DHT22;1616;52.394;9.756;2024-02-28T10:05:46;17.10;65.30
3208;DHT22;1616;52.394;9.756;2024-02-28T10:08:12;16.90;64.60
3208;DHT22;1616;52.394;9.756;2024-02-28T10:10:47;16.80;65.70
3208;DHT22;1616;52.394;9.756;2024-02-28T10:13:15;16.90;64.60
3208;DHT22;1616;52.394;9.756;2024-02-28T10:15:41;17.00;63.50
3208;DHT22;1616;52.394;9.756;2024-02-28T10:18:06;17.20;64.00
3208;DHT22;1616;52.394;9.756;2024-02-28T10:20:33;17.40;61.60
3208;DHT22;1616;52.394;9.756;2024-02-28T10:22:59;17.10;60.50
3208;DHT22;1616;52.394;9.756;2024-02-28T10:25:24;16.50;60.10
3208;DHT22;1616;52.394;9.756;2024-02-28T10:27:51;15.80;60.00
3208;DHT22;1616;52.394;9.756;2024-02-28T10:30:19;15.10;61.30
3208;DHT22;1616;52.394;9.756;2024-02-28T10:32:51;14.50;62.70
3208;DHT22;1616;52.394;9.756;2024-02-28T10:35:20;14.00;64.10
3208;DHT22;1616;52.394;9.756;2024-02-28T10:37:47;13.40;65.90
3208;DHT22;1616;52.394;9.756;2024-02-28T10:40:16;13.00;67.20
3208;DHT22;1616;52.394;9.756;2024-02-28T10:42:42;12.70;70.00
3208;DHT22;1616;52.394;9.756;2024-02-28T10:45:10;12.60;71.40
3208;DHT22;1616;52.394;9.756;2024-02-28T10:47:39;12.50;71.90
3208;DHT22;1616;52.394;9.756;2024-02-28T10:50:07;12.30;72.20
3208;DHT22;1616;52.394;9.756;2024-02-28T10:52:40;12.10;72.40
3208;DHT22;1616;52.394;9.756;2024-02-28T10:55:09;11.80;73.20
3208;DHT22;1616;52.394;9.756;2024-02-28T10:57:36;11.60;74.10
3208;DHT22;1616;52.394;9.756;2024-02-28T11:00:03;11.30;75.70
3208;DHT22;1616;52.394;9.756;2024-02-28T11:02:31;11.20;78.10
3208;DHT22;1616;52.394;9.756;2024-02-28T11:04:57;11.30;80.60
3208;DHT22;1616;52.394;9.756;2024-02-28T11:07:26;11.60;82.80
3208;DHT22;1616;52.394;9.756;2024-02-28T11:09:54;11.80;81.30
3208;DHT22;1616;52.394;9.756;2024-02-28T11:12:28;12.10;81.20
3208;DHT22;1616;52.394;9.756;2024-02-28T11:15:03;12.40;80.80
3208;DHT22;1616;52.394;9.756;2024-02-28T11:17:32;13.00;83.30
3208;DHT22;1616;52.394;9.756;2024-02-28T11:19:59;13.90;80.50
3208;DHT22;1616;52.394;9.756;2024-02-28T11:22:28;14.90;77.40
3208;DHT22;1616;52.394;9.756;2024-02-28T11:24:54;15.70;71.70
3208;DHT22;1616;52.394;9.756;2024-02-28T11:27:21;16.10;68.80
3208;DHT22;1616;52.394;9.756;2024-02-28T11:29:47;16.60;68.10
3208;DHT22;1616;52.394;9.756;2024-02-28T11:32:15;17.20;64.50
3208;DHT22;1616;52.394;9.756;2024-02-28T11:34:41;17.60;61.40
3208;DHT22;1616;52.394;9.756;2024-02-28T11:37:09;17.90;59.60
3208;DHT22;1616;52.394;9.756;2024-02-28T11:39:34;18.30;58.30
3208;DHT22;1616;52.394;9.756;2024-02-28T11:44:36;18.80;55.20
3208;DHT22;1616;52.394;9.756;2024-02-28T11:47:01;19.10;54.40
3208;DHT22;1616;52.394;9.756;2024-02-28T11:49:29;19.50;52.20
3208;DHT22;1616;52.394;9.756;2024-02-28T11:51:54;19.70;50.90
3208;DHT22;1616;52.394;9.756;2024-02-28T11:54:20;20.00;49.20
3208;DHT22;1616;52.394;9.756;2024-02-28T11:56:45;20.00;48.10
3208;DHT22;1616;52.394;9.756;2024-02-28T11:59:11;19.90;46.00
3208;DHT22;1616;52.394;9.756;2024-02-28T12:01:41;19.60;45.40
3208;DHT22;1616;52.394;9.756;2024-02-28T12:04:09;18.90;45.30
3208;DHT22;1616;52.394;9.756;2024-02-28T12:06:36;18.30;46.80
3208;DHT22;1616;52.394;9.756;2024-02-28T12:09:12;17.80;47.40
3208;DHT22;1616;52.394;9.756;2024-02-28T12:11:40;17.30;48.40
3208;DHT22;1616;52.394;9.756;2024-02-28T12:14:07;17.00;50.50
3208;DHT22;1616;52.394;9.756;2024-02-28T12:16:39;16.90;51.00
3208;DHT22;1616;52.394;9.756;2024-02-28T12:19:14;16.80;51.50
3208;DHT22;1616;52.394;9.756;2024-02-28T12:21:41;17.00;51.40
3208;DHT22;1616;52.394;9.756;2024-02-28T12:24:08;17.40;50.50
3208;DHT22;1616;52.394;9.756;2024-02-28T12:26:37;17.70;49.40
3208;DHT22;1616;52.394;9.756;2024-02-28T12:29:03;17.90;48.00
3208;DHT22;1616;52.394;9.756;2024-02-28T12:31:29;18.10;47.60
3208;DHT22;1616;52.394;9.756;2024-02-28T12:33:55;18.20;46.40
3208;DHT22;1616;52.394;9.756;2024-02-28T12:36:21;18.40;45.30
3208;DHT22;1616;52.394;9.756;2024-02-28T12:38:47;18.40;44.90
3208;DHT22;1616;52.394;9.756;2024-02-28T12:41:13;18.50;45.00
3208;DHT22;1616;52.394;9.756;2024-02-28T12:43:39;18.60;44.30
3208;DHT22;1616;52.394;9.756;2024-02-28T12:46:05;18.80;43.60
3208;DHT22;1616;52.394;9.756;2024-02-28T12:48:41;18.60;42.90
3208;DHT22;1616;52.394;9.756;2024-02-28T12:51:11;18.40;43.00
3208;DHT22;1616;52.394;9.756;2024-02-28T12:53:36;18.20;42.80
3208;DHT22;1616;52.394;9.756;2024-02-28T12:56:02;18.00;43.30
3208;DHT22;1616;52.394;9.756;2024-02-28T12:58:28;17.80;43.80
3208;DHT22;1616;52.394;9.756;2024-02-28T13:00:54;17.60;43.60
3208;DHT22;1616;52.394;9.756;2024-02-28T13:03:20;17.40;44.60
3208;DHT22;1616;52.394;9.756;2024-02-28T13:05:45;17.10;45.00
3208;DHT22;1616;52.394;9.756;2024-02-28T13:08:11;16.80;45.40
3208;DHT22;1616;52.394;9.756;2024-02-28T13:10:36;16.50;45.80
3208;DHT22;1616;52.394;9.756;2024-02-28T13:13:06;16.30;45.60
3208;DHT22;1616;52.394;9.756;2024-02-28T13:15:33;15.90;46.20
3208;DHT22;1616;52.394;9.756;2024-02-28T13:17:59;15.50;46.70
3208;DHT22;1616;52.394;9.756;2024-02-28T13:20:27;15.10;48.10
3208;DHT22;1616;52.394;9.756;2024-02-28T13:22:53;14.70;49.00
3208;DHT22;1616;52.394;9.756;2024-02-28T13:25:19;14.30;49.80
3208;DHT22;1616;52.394;9.756;2024-02-28T13:27:46;13.90;50.70
3208;DHT22;1616;52.394;9.756;2024-02-28T13:30:12;13.60;52.00
3208;DHT22;1616;52.394;9.756;2024-02-28T13:32:39;13.40;53.30
3208;DHT22;1616;52.394;9.756;2024-02-28T13:35:05;13.10;54.00
3208;DHT22;1616;52.394;9.756;2024-02-28T13:37:30;12.90;54.30
3208;DHT22;1616;52.394;9.756;2024-02-28T13:39:58;12.70;55.20
3208;DHT22;1616;52.394;9.756;2024-02-28T13:42:24;12.50;55.90
3208;DHT22;1616;52.394;9.756;2024-02-28T13:44:50;12.40;56.70
3208;DHT22;1616;52.394;9.756;2024-02-28T13:47:16;12.30;56.80
3208;DHT22;1616;52.394;9.756;2024-02-28T13:49:42;12.10;57.30
3208;DHT22;1616;52.394;9.756;2024-02-28T13:52:07;11.90;57.70
3208;DHT22;1616;52.394;9.756;2024-02-28T13:54:33;11.80;58.60
3208;DHT22;1616;52.394;9.756;2024-02-28T13:57:00;11.60;59.40
3208;DHT22;1616;52.394;9.756;2024-02-28T13:59:27;11.50;60.00
3208;DHT22;1616;52.394;9.756;2024-02-28T14:01:53;11.40;61.00
3208;DHT22;1616;52.394;9.756;2024-02-28T14:04:19;11.30;61.40
3208;DHT22;1616;52.394;9.756;2024-02-28T14:06:45;11.20;62.00
3208;DHT22;1616;52.394;9.756;2024-02-28T14:09:11;11.10;62.70
3208;DHT22;1616;52.394;9.756;2024-02-28T14:11:37;11.10;63.80
3208;DHT22;1616;52.394;9.756;2024-02-28T14:14:03;11.10;64.30
3208;DHT22;1616;52.394;9.756;2024-02-28T14:16:29;11.10;64.60
3208;DHT22;1616;52.394;9.756;2024-02-28T14:18:58;11.10;64.80
3208;DHT22;1616;52.394;9.756;2024-02-28T14:21:24;11.00;65.00
3208;DHT22;1616;52.394;9.756;2024-02-28T14:23:50;11.00;65.40
3208;DHT22;1616;52.394;9.756;2024-02-28T14:26:17;11.00;65.80
3208;DHT22;1616;52.394;9.756;2024-02-28T14:28:42;11.10;66.40
3208;DHT22;1616;52.394;9.756;2024-02-28T14:31:08;11.00;66.50
3208;DHT22;1616;52.394;9.756;2024-02-28T14:33:34;11.10;66.50
3208;DHT22;1616;52.394;9.756;2024-02-28T14:36:02;11.10;66.70
3208;DHT22;1616;52.394;9.756;2024-02-28T14:38:31;11.10;66.80
3208;DHT22;1616;52.394;9.756;2024-02-28T14:40:57;11.10;67.20
3208;DHT22;1616;52.394;9.756;2024-02-28T14:43:23;11.10;67.10
3208;DHT22;1616;52.394;9.756;2024-02-28T14:45:49;11.10;67.10
3208;DHT22;1616;52.394;9.756;2024-02-28T14:48:15;11.20;67.10
3208;DHT22;1616;52.394;9.756;2024-02-28T14:50:41;11.20;67.10
3208;DHT22;1616;52.394;9.756;2024-02-28T14:53:08;11.20;67.10
3208;DHT22;1616;52.394;9.756;2024-02-28T14:55:34;11.20;66.30
3208;DHT22;1616;52.394;9.756;2024-02-28T14:57:59;11.20;65.70
3208;DHT22;1616;52.394;9.756;2024-02-28T15:00:27;11.20;65.80
3208;DHT22;1616;52.394;9.756;2024-02-28T15:02:53;11.20;66.10
3208;DHT22;1616;52.394;9.756;2024-02-28T15:05:19;11.20;66.20
3208;DHT22;1616;52.394;9.756;2024-02-28T15:07:45;11.20;66.20
3208;DHT22;1616;52.394;9.756;2024-02-28T15:10:10;11.20;66.40
3208;DHT22;1616;52.394;9.756;2024-02-28T15:12:36;11.20;66.30
3208;DHT22;1616;52.394;9.756;2024-02-28T15:15:05;11.20;66.80
3208;DHT22;1616;52.394;9.756;2024-02-28T15:17:31;11.20;66.50
3208;DHT22;1616;52.394;9.756;2024-02-28T15:19:58;11.10;66.30
3208;DHT22;1616;52.394;9.756;2024-02-28T15:22:24;11.00;66.30
3208;DHT22;1616;52.394;9.756;2024-02-28T15:24:50;11.00;66.40
3208;DHT22;1616;52.394;9.756;2024-02-28T15:27:16;10.90;66.90
3208;DHT22;1616;52.394;9.756;2024-02-28T15:29:42;10.80;67.30
3208;DHT22;1616;52.394;9.756;2024-02-28T15:32:07;10.80;67.70
3208;DHT22;1616;52.394;9.756;2024-02-28T15:34:34;10.70;68.50
3208;DHT22;1616;52.394;9.756;2024-02-28T15:36:59;10.60;68.50
3208;DHT22;1616;52.394;9.756;2024-02-28T15:39:25;10.60;69.00
3208;DHT22;1616;52.394;9.756;2024-02-28T15:41:51;10.50;68.60
3208;DHT22;1616;52.394;9.756;2024-02-28T15:44:17;10.40;69.00
3208;DHT22;1616;52.394;9.756;2024-02-28T15:46:43;10.40;69.20
3208;DHT22;1616;52.394;9.756;2024-02-28T15:49:09;10.30;69.40
3208;DHT22;1616;52.394;9.756;2024-02-28T15:51:35;10.20;69.20
3208;DHT22;1616;52.394;9.756;2024-02-28T15:54:01;10.20;69.30
3208;DHT22;1616;52.394;9.756;2024-02-28T15:56:27;10.10;69.70
3208;DHT22;1616;52.394;9.756;2024-02-28T15:58:52;10.00;70.00
3208;DHT22;1616;52.394;9.756;2024-02-28T16:01:18;9.90;71.40
3208;DHT22;1616;52.394;9.756;2024-02-28T16:03:44;9.80;71.80
3208;DHT22;1616;52.394;9.756;2024-02-28T16:06:09;9.70;72.70
3208;DHT22;1616;52.394;9.756;2024-02-28T16:08:40;9.50;73.40